Time;durP1;ratioP1;P1;durP2;ratioP2;P2;SDS_P1;SDS_P2;PMS_P1;PMS_P2;Temp;Humidity;BMP_temperature;BMP_pressure;BME280_temperature;BME280_humidity;BME280_pressure;Samples;Min_cycle;Max_cycle;Signal;HPM_P1;HPM_P2
2022/06/12 00:00:45;;;;;;;9.70;2.03;;;13.00;99.90;;;;;;5044234;28;20066;-68
2022/06/12 00:03:13;;;;;;;6.15;2.42;;;13.10;99.90;;;;;;5030019;28;20033;-69
2022/06/12 00:05:42;;;;;;;5.47;2.20;;;13.10;99.90;;;;;;5040666;28;20025;-68
2022/06/12 00:08:09;;;;;;;8.45;2.35;;;;;;;;;;5043869;28;20067;-68
2022/06/12 00:10:36;;;;;;;6.07;1.75;;;12.90;99.90;;;;;;5027277;28;20041;-68
2022/06/12 00:13:03;;;;;;;7.22;2.90;;;;;;;;;;5044642;28;20503;-69
2022/06/12 00:15:30;;;;;;;4.72;1.88;;;13.20;99.90;;;;;;5040136;28;20500;-69
2022/06/12 00:17:56;;;;;;;5.32;1.55;;;;;;;;;;5034052;28;20495;-68
2022/06/12 00:20:23;;;;;;;12.57;2.42;;;;;;;;;;5024544;28;20044;-68
2022/06/12 00:22:51;;;;;;;7.55;1.77;;;12.90;99.90;;;;;;5039186;28;20505;-68
2022/06/12 00:25:18;;;;;;;7.90;2.53;;;12.80;99.90;;;;;;5058354;28;20037;-68
2022/06/12 00:27:44;;;;;;;9.80;2.17;;;;;;;;;;5043994;28;20486;-68
2022/06/12 00:30:13;;;;;;;14.13;2.85;;;13.00;99.90;;;;;;5040851;28;20409;-68
2022/06/12 00:32:40;;;;;;;9.38;2.22;;;12.90;99.90;;;;;;5059134;28;20044;-68
2022/06/12 00:35:07;;;;;;;6.60;2.25;;;12.90;99.90;;;;;;5040664;28;20060;-68
2022/06/12 00:37:34;;;;;;;8.85;1.80;;;13.00;99.90;;;;;;5023016;28;20049;-68
2022/06/12 00:40:00;;;;;;;7.28;2.20;;;13.00;99.90;;;;;;5056606;28;20522;-68
2022/06/12 00:42:35;;;;;;;6.43;1.63;;;13.10;99.90;;;;;;5025828;28;20041;-68
2022/06/12 00:45:21;;;;;;;5.47;1.73;;;13.10;99.90;;;;;;5039911;28;20119;-68
2022/06/12 00:47:47;;;;;;;5.85;1.60;;;13.00;99.90;;;;;;5035912;28;20045;-68
2022/06/12 00:50:13;;;;;;;6.35;1.90;;;12.90;99.90;;;;;;5028638;28;20124;-68
2022/06/12 00:52:46;;;;;;;6.22;2.30;;;13.00;99.90;;;;;;5039204;28;20171;-68
2022/06/12 00:55:24;;;;;;;8.63;1.75;;;13.10;99.90;;;;;;5039127;28;20049;-68
2022/06/12 00:57:58;;;;;;;10.85;2.25;;;12.90;99.90;;;;;;5058674;28;20094;-68
2022/06/12 01:00:24;;;;;;;7.47;1.90;;;;;;;;;;5041939;28;20037;-68
2022/06/12 01:02:50;;;;;;;10.77;2.65;;;13.00;99.90;;;;;;5023098;28;20041;-69
2022/06/12 01:08:05;;;;;;;8.32;2.00;;;13.00;99.90;;;;;;5074518;28;20498;-68
2022/06/12 01:10:33;;;;;;;7.10;2.30;;;13.00;99.90;;;;;;5036004;28;20048;-67
2022/06/12 01:13:07;;;;;;;7.60;1.92;;;13.00;99.90;;;;;;5034695;28;20048;-67
2022/06/12 01:15:37;;;;;;;5.13;1.95;;;12.90;99.90;;;;;;5052522;28;20037;-67
2022/06/12 01:18:07;;;;;;;7.05;1.98;;;12.80;99.90;;;;;;5034459;28;20048;-67
2022/06/12 01:20:52;;;;;;;7.93;1.63;;;13.00;99.90;;;;;;5017934;28;20041;-67
2022/06/12 01:23:43;;;;;;;8.32;1.88;;;12.80;99.90;;;;;;5034853;28;20099;-67
2022/06/12 01:26:09;;;;;;;11.77;2.05;;;;;;;;;;5046916;28;20443;-67
2022/06/12 01:28:50;;;;;;;5.70;1.92;;;12.70;99.90;;;;;;5024493;28;20072;-67
2022/06/12 01:31:30;;;;;;;6.70;1.80;;;12.70;99.90;;;;;;5027478;28;20160;-68
2022/06/12 01:34:17;;;;;;;6.30;2.25;;;12.70;99.90;;;;;;5047759;28;20045;-67
2022/06/12 01:37:05;;;;;;;7.05;2.03;;;12.70;99.90;;;;;;5033920;28;20045;-67
2022/06/12 01:39:41;;;;;;;9.70;2.35;;;12.60;99.90;;;;;;5029049;28;20045;-69
2022/06/12 01:42:09;;;;;;;8.27;2.67;;;12.60;99.90;;;;;;5026477;28;20045;-67
2022/06/12 01:44:42;;;;;;;11.13;2.58;;;12.70;99.90;;;;;;5052010;28;20371;-66
2022/06/12 01:47:26;;;;;;;7.00;2.17;;;12.60;99.90;;;;;;5034086;28;20098;-67
2022/06/12 01:50:34;;;;;;;6.90;2.25;;;12.70;99.90;;;;;;5030886;28;20050;-67
2022/06/12 01:53:25;;;;;;;6.03;2.25;;;12.50;99.90;;;;;;5028208;28;20514;-67
2022/06/12 01:55:59;;;;;;;7.78;2.45;;;12.50;99.90;;;;;;5045433;28;20041;-67
2022/06/12 01:58:34;;;;;;;11.70;2.63;;;12.50;99.90;;;;;;5020505;28;20052;-67
2022/06/12 02:01:23;;;;;;;7.47;2.63;;;12.50;99.90;;;;;;5034193;28;20048;-67
2022/06/12 02:04:05;;;;;;;10.60;2.38;;;12.50;99.90;;;;;;5041140;28;20048;-67
2022/06/12 02:06:40;;;;;;;9.50;2.33;;;12.60;99.90;;;;;;5035747;28;20483;-67
2022/06/12 02:09:13;;;;;;;9.15;2.83;;;12.40;99.90;;;;;;5038140;28;20041;-67
2022/06/12 02:15:16;;;;;;;6.40;2.20;;;12.40;99.90;;;;;;5038323;28;20499;-67
2022/06/12 02:17:53;;;;;;;10.60;2.53;;;12.30;99.90;;;;;;5038517;28;20037;-67
2022/06/12 02:20:23;;;;;;;6.35;2.28;;;12.50;99.90;;;;;;5052264;28;20121;-68
2022/06/12 02:22:49;;;;;;;7.05;2.30;;;12.30;99.90;;;;;;5028212;28;20406;-67
2022/06/12 02:25:25;;;;;;;7.75;2.03;;;12.50;99.90;;;;;;5055887;28;20045;-67
2022/06/12 02:27:57;;;;;;;8.27;2.63;;;12.40;99.90;;;;;;5065500;28;20115;-68
2022/06/12 02:30:30;;;;;;;6.80;2.10;;;12.20;99.90;;;;;;5041577;28;20037;-67
2022/06/12 02:33:07;;;;;;;10.35;2.35;;;12.30;99.90;;;;;;5046335;28;20486;-68
2022/06/12 02:35:45;;;;;;;7.43;2.30;;;12.30;99.90;;;;;;5035190;28;20041;-67
2022/06/12 02:38:31;;;;;;;10.27;2.30;;;12.10;99.90;;;;;;5037132;28;20135;-68
2022/06/12 02:41:07;;;;;;;10.23;2.90;;;12.10;99.90;;;;;;5021239;28;20037;-67
2022/06/12 02:43:34;;;;;;;9.45;3.28;;;13.00;99.90;;;;;;5042431;28;20037;-67
2022/06/12 02:46:02;;;;;;;4.97;2.20;;;12.20;99.90;;;;;;5036413;28;20083;-67
2022/06/12 02:48:30;;;;;;;4.40;1.88;;;12.00;99.90;;;;;;5037270;28;20041;-67
2022/06/12 02:51:14;;;;;;;6.25;3.00;;;12.00;99.90;;;;;;5037435;28;20094;-67
2022/06/12 02:54:05;;;;;;;5.85;2.42;;;12.10;99.90;;;;;;5037650;28;20433;-67
2022/06/12 02:56:58;;;;;;;8.10;2.08;;;12.00;99.90;;;;;;5025322;28;20072;-67
2022/06/12 02:59:34;;;;;;;5.32;2.13;;;12.10;99.90;;;;;;5055273;28;20029;-67
2022/06/12 03:02:17;;;;;;;8.02;1.92;;;12.00;99.90;;;;;;5037035;28;20122;-67
2022/06/12 03:05:20;;;;;;;7.80;2.10;;;12.00;99.90;;;;;;5037524;28;20041;-67
2022/06/12 03:07:48;;;;;;;6.45;2.53;;;11.90;99.90;;;;;;5018874;28;20060;-67
2022/06/12 03:10:17;;;;;;;10.30;2.53;;;11.90;99.90;;;;;;5054815;28;20554;-67
2022/06/12 03:12:44;;;;;;;6.72;2.40;;;12.00;99.90;;;;;;5020572;28;20139;-67
2022/06/12 03:15:45;;;;;;;7.65;2.10;;;12.10;99.90;;;;;;5036735;28;20052;-67
2022/06/12 03:18:15;;;;;;;7.55;2.15;;;11.80;99.90;;;;;;5036338;28;20049;-67
2022/06/12 03:21:06;;;;;;;7.97;2.30;;;11.90;99.90;;;;;;5054982;28;20048;-67
2022/06/12 03:23:50;;;;;;;5.95;2.72;;;12.00;99.90;;;;;;5018303;28;20039;-67
2022/06/12 03:26:33;;;;;;;10.27;2.88;;;11.90;99.90;;;;;;5040481;28;20152;-67
2022/06/12 03:29:13;;;;;;;7.03;2.03;;;12.10;99.90;;;;;;5031127;28;20033;-67
2022/06/12 03:31:50;;;;;;;8.75;2.65;;;11.80;99.90;;;;;;5029567;28;20041;-68
2022/06/12 03:34:58;;;;;;;8.82;2.30;;;11.90;99.90;;;;;;5016960;28;20029;-67
2022/06/12 03:37:24;;;;;;;5.13;2.17;;;;;;;;;;5008339;28;20045;-67
2022/06/12 03:40:11;;;;;;;6.75;2.90;;;12.00;99.90;;;;;;5053999;28;20060;-67
2022/06/12 03:43:06;;;;;;;7.15;2.55;;;12.00;99.90;;;;;;5036243;28;20048;-67
2022/06/12 03:45:54;;;;;;;4.45;2.33;;;12.00;99.90;;;;;;5018752;28;20396;-68
2022/06/12 03:48:35;;;;;;;11.02;2.42;;;11.80;99.90;;;;;;5058561;28;20408;-68
2022/06/12 03:51:18;;;;;;;8.43;3.47;;;12.00;99.90;;;;;;5023145;28;20037;-68
2022/06/12 03:53:59;;;;;;;11.10;2.90;;;12.10;99.90;;;;;;5048552;28;20124;-66
2022/06/12 03:59:31;;;;;;;8.35;2.95;;;12.10;99.90;;;;;;5053968;28;20403;-68
2022/06/12 04:01:57;;;;;;;12.75;2.45;;;12.20;99.90;;;;;;5036393;28;20541;-67
2022/06/12 04:04:25;;;;;;;8.63;2.97;;;12.20;99.90;;;;;;5036449;28;20049;-67
2022/06/12 04:06:54;;;;;;;10.40;2.80;;;12.30;99.90;;;;;;5053938;28;20051;-67
2022/06/12 04:09:24;;;;;;;5.15;2.70;;;12.30;99.90;;;;;;5047910;28;20136;-68
2022/06/12 04:11:55;;;;;;;9.05;2.47;;;12.20;99.90;;;;;;5038435;28;20069;-68
2022/06/12 04:14:24;;;;;;;5.22;2.53;;;12.30;99.90;;;;;;5022673;28;20049;-67
2022/06/12 04:16:54;;;;;;;8.40;2.38;;;12.40;99.90;;;;;;5043240;28;20079;-67
2022/06/12 04:19:22;;;;;;;10.32;2.83;;;12.30;99.90;;;;;;5043409;28;20096;-66
2022/06/12 04:22:14;;;;;;;10.30;2.88;;;12.40;99.90;;;;;;5053835;28;20394;-67
2022/06/12 04:24:55;;;;;;;8.80;3.13;;;12.30;99.90;;;;;;5038017;28;20052;-67
2022/06/12 04:27:32;;;;;;;8.73;3.15;;;12.20;99.90;;;;;;5032984;28;20090;-67
2022/06/12 04:30:20;;;;;;;4.38;2.00;;;12.40;99.90;;;;;;5036302;28;20450;-68
2022/06/12 04:32:47;;;;;;;8.65;2.75;;;12.50;99.90;;;;;;5026625;28;20052;-67
2022/06/12 04:35:13;;;;;;;9.60;2.67;;;;;;;;;;5037420;28;20438;-68
2022/06/12 04:37:39;;;;;;;10.40;2.63;;;;;;;;;;5044082;28;20028;-66
2022/06/12 04:40:12;;;;;;;8.98;3.00;;;12.50;99.90;;;;;;5047080;28;20566;-66
2022/06/12 04:42:38;;;;;;;10.65;2.85;;;12.60;99.90;;;;;;5049566;28;20206;-66
2022/06/12 04:45:05;;;;;;;8.07;2.83;;;12.80;99.90;;;;;;5027966;28;20041;-65
2022/06/12 04:47:31;;;;;;;10.70;2.70;;;12.80;99.90;;;;;;5048250;28;20050;-65
2022/06/12 04:49:57;;;;;;;7.97;2.53;;;;;;;;;;5032028;28;20445;-65
2022/06/12 04:52:26;;;;;;;12.10;3.50;;;12.90;99.90;;;;;;5045960;28;20110;-66
2022/06/12 04:54:52;;;;;;;7.85;2.40;;;13.30;99.90;;;;;;5056251;28;20040;-64
2022/06/12 04:57:18;;;;;;;9.63;2.53;;;13.60;99.90;;;;;;5026433;28;20110;-64
2022/06/12 04:59:45;;;;;;;11.48;2.78;;;14.10;99.90;;;;;;5050293;28;20070;-65
2022/06/12 05:02:11;;;;;;;7.38;2.63;;;14.60;99.90;;;;;;5045100;28;20489;-65
2022/06/12 05:04:38;;;;;;;9.00;3.13;;;14.70;99.90;;;;;;5048017;28;20041;-64
2022/06/12 05:07:05;;;;;;;11.13;2.40;;;15.10;99.90;;;;;;5044173;28;20067;-65
2022/06/12 05:09:35;;;;;;;9.45;2.42;;;15.20;99.90;;;;;;5053661;28;20041;-65
2022/06/12 05:12:00;;;;;;;10.90;2.50;;;15.50;99.90;;;;;;5029813;28;20604;-64
2022/06/12 05:14:26;;;;;;;11.05;2.40;;;15.60;99.90;;;;;;5044222;28;20132;-64
2022/06/12 05:16:55;;;;;;;10.77;3.08;;;15.70;99.90;;;;;;5043737;28;20509;-64
2022/06/12 05:19:26;;;;;;;13.20;3.35;;;16.00;99.90;;;;;;5042191;28;20434;-64
2022/06/12 05:21:52;;;;;;;9.80;2.25;;;16.20;99.90;;;;;;5022577;28;20396;-64
2022/06/12 05:24:17;;;;;;;9.85;2.25;;;16.50;99.90;;;;;;5044258;28;20492;-64
2022/06/12 05:26:45;;;;;;;12.57;2.20;;;16.30;99.90;;;;;;5043081;28;20055;-68
2022/06/12 05:29:25;;;;;;;7.82;2.22;;;16.40;99.90;;;;;;5052562;28;20041;-68
2022/06/12 05:31:52;;;;;;;13.32;2.88;;;16.40;99.90;;;;;;5045206;28;20044;-68
2022/06/12 05:34:18;;;;;;;9.32;2.65;;;16.90;99.90;;;;;;5036006;28;20041;-68
2022/06/12 05:36:44;;;;;;;8.07;2.65;;;17.00;99.90;;;;;;5022194;28;20487;-68
2022/06/12 05:39:10;;;;;;;8.82;2.60;;;17.60;99.90;;;;;;5034132;28;20067;-68
2022/06/12 05:41:36;;;;;;;7.50;2.40;;;18.00;99.90;;;;;;5023374;28;20053;-68
2022/06/12 05:44:02;;;;;;;11.02;2.40;;;18.10;99.90;;;;;;5034696;28;20497;-68
2022/06/12 05:46:28;;;;;;;13.25;1.98;;;18.50;99.90;;;;;;5049549;28;20154;-68
2022/06/12 05:48:53;;;;;;;8.23;2.17;;;18.70;99.90;;;;;;5042627;28;20396;-69
2022/06/12 05:51:20;;;;;;;11.65;2.10;;;18.90;99.90;;;;;;5032327;28;20033;-68
2022/06/12 05:53:46;;;;;;;11.45;2.35;;;18.60;99.90;;;;;;5032999;28;20041;-69
2022/06/12 05:56:20;;;;;;;12.73;2.33;;;18.50;99.90;;;;;;5027789;28;20044;-69
2022/06/12 05:58:46;;;;;;;8.90;2.27;;;18.20;99.90;;;;;;5036957;28;20106;-69
2022/06/12 06:01:14;;;;;;;8.38;2.13;;;17.90;99.90;;;;;;5050278;28;20044;-70
2022/06/12 06:03:41;;;;;;;10.05;2.80;;;19.90;99.90;;;;;;5026560;28;20045;-70
2022/06/12 06:06:09;;;;;;;9.85;2.35;;;18.40;99.90;;;;;;5037633;28;20033;-69
2022/06/12 06:08:35;;;;;;;13.93;2.63;;;18.60;99.90;;;;;;5035535;28;20069;-69
2022/06/12 06:11:00;;;;;;;11.38;2.35;;;18.30;99.90;;;;;;5032507;28;20717;-70
2022/06/12 06:13:26;;;;;;;12.85;2.75;;;18.40;99.90;;;;;;5036012;28;20030;-70
2022/06/12 06:15:52;;;;;;;11.75;3.33;;;18.20;99.90;;;;;;5033401;28;20499;-69
2022/06/12 06:18:19;;;;;;;15.30;3.42;;;18.30;99.90;;;;;;5019606;28;20080;-70
2022/06/12 06:20:46;;;;;;;14.38;2.60;;;18.40;99.90;;;;;;5020457;28;20038;-70
2022/06/12 06:23:12;;;;;;;13.60;3.33;;;18.60;99.90;;;;;;5026931;28;20038;-69
2022/06/12 06:25:39;;;;;;;13.43;2.72;;;18.60;99.90;;;;;;5016564;28;20053;-70
2022/06/12 06:28:07;;;;;;;15.60;4.10;;;18.40;99.90;;;;;;5015692;28;20041;-70
2022/06/12 06:30:33;;;;;;;14.05;2.90;;;18.70;99.90;;;;;;5019390;28;20040;-69
2022/06/12 06:32:59;;;;;;;15.75;3.40;;;19.60;99.90;;;;;;5033225;28;20041;-70
2022/06/12 06:35:25;;;;;;;14.05;3.22;;;18.80;99.90;;;;;;5018144;28;20042;-69
2022/06/12 06:37:51;;;;;;;8.90;3.20;;;18.90;99.90;;;;;;5020172;28;20120;-69
2022/06/12 06:40:20;;;;;;;13.23;2.83;;;18.60;99.90;;;;;;5051239;28;20061;-72
2022/06/12 06:42:45;;;;;;;15.13;3.63;;;18.70;99.90;;;;;;5033018;28;20068;-70
2022/06/12 06:47:57;;;;;;;16.90;3.67;;;18.50;99.90;;;;;;5030179;28;20415;-69
2022/06/12 06:50:24;;;;;;;16.80;3.78;;;18.60;99.90;;;;;;5034988;28;20047;-69
2022/06/12 06:52:51;;;;;;;17.58;3.47;;;18.70;99.90;;;;;;5040176;28;20395;-69
2022/06/12 06:55:17;;;;;;;19.90;3.50;;;18.20;99.90;;;;;;5029094;28;20048;-71
2022/06/12 06:57:45;;;;;;;18.25;4.40;;;18.30;99.90;;;;;;5023569;28;20049;-70
2022/06/12 07:00:16;;;;;;;14.38;3.20;;;18.10;99.90;;;;;;5038083;28;20045;-70
2022/06/12 07:02:41;;;;;;;14.15;4.05;;;18.30;99.90;;;;;;5026661;28;20041;-70
2022/06/12 07:05:08;;;;;;;15.43;3.80;;;18.00;99.90;;;;;;5039921;28;20128;-70
2022/06/12 07:07:34;;;;;;;21.20;4.72;;;18.10;99.90;;;;;;5052357;28;20048;-71
2022/06/12 07:10:01;;;;;;;17.73;5.03;;;18.10;99.90;;;;;;5026201;28;20527;-71
2022/06/12 07:12:27;;;;;;;18.88;4.65;;;19.90;99.90;;;;;;5017587;28;20132;-69
2022/06/12 07:14:52;;;;;;;18.45;4.78;;;19.10;99.90;;;;;;5019917;28;20049;-66
2022/06/12 07:17:18;;;;;;;14.98;4.07;;;18.40;99.90;;;;;;5047193;28;20048;-69
2022/06/12 07:19:44;;;;;;;20.60;3.92;;;18.30;99.90;;;;;;5056419;28;20049;-68
2022/06/12 07:22:10;;;;;;;21.40;4.28;;;16.60;99.90;;;;;;5032202;28;20049;-69
2022/06/12 07:24:35;;;;;;;22.30;4.90;;;18.70;99.90;;;;;;5038179;28;20039;-67
2022/06/12 07:27:01;;;;;;;14.07;3.13;;;18.50;99.90;;;;;;5018258;28;20053;-68
2022/06/12 07:29:27;;;;;;;22.90;4.53;;;18.80;99.90;;;;;;5033462;28;20056;-69
2022/06/12 07:31:52;;;;;;;15.13;3.90;;;18.80;99.90;;;;;;5033016;28;20570;-69
2022/06/12 07:34:18;;;;;;;17.80;4.72;;;19.20;99.90;;;;;;5061519;28;20044;-68
2022/06/12 07:36:46;;;;;;;16.98;5.38;;;18.80;99.90;;;;;;5050746;28;20043;-68
2022/06/12 07:39:16;;;;;;;22.23;5.15;;;19.00;99.90;;;;;;5054182;28;20056;-68
2022/06/12 07:41:43;;;;;;;19.65;4.47;;;18.90;99.90;;;;;;5055737;28;20044;-67
2022/06/12 07:44:10;;;;;;;18.80;4.07;;;19.10;99.90;;;;;;5052251;28;20033;-68
2022/06/12 07:46:36;;;;;;;16.17;4.57;;;18.80;99.90;;;;;;5048500;28;20033;-68
2022/06/12 07:49:02;;;;;;;18.98;4.38;;;18.80;99.90;;;;;;5054384;28;20549;-68
2022/06/12 07:51:28;;;;;;;20.95;5.60;;;19.60;99.90;;;;;;5057130;28;20040;-68
2022/06/12 07:53:54;;;;;;;21.27;4.43;;;19.10;99.90;;;;;;5035539;28;20039;-68
2022/06/12 07:56:21;;;;;;;18.25;4.72;;;19.10;99.90;;;;;;5052713;28;20029;-70
2022/06/12 07:58:47;;;;;;;20.17;4.53;;;19.40;99.90;;;;;;5052574;28;20155;-70
2022/06/12 08:01:17;;;;;;;23.90;4.65;;;19.10;99.90;;;;;;5054927;28;20116;-70
2022/06/12 08:03:43;;;;;;;27.95;5.70;;;19.40;99.90;;;;;;5033829;28;20048;-70
2022/06/12 08:06:09;;;;;;;18.85;4.15;;;19.40;99.90;;;;;;5045143;28;20036;-70
2022/06/12 08:08:35;;;;;;;23.23;4.28;;;19.20;99.90;;;;;;5052682;28;20049;-72
2022/06/12 08:11:01;;;;;;;14.38;3.90;;;19.30;99.90;;;;;;5052551;28;20566;-69
2022/06/12 08:13:28;;;;;;;15.75;3.58;;;19.10;99.90;;;;;;5031349;28;20506;-69
2022/06/12 08:15:55;;;;;;;20.20;4.00;;;19.20;99.90;;;;;;5041849;28;20091;-71
2022/06/12 08:18:22;;;;;;;17.52;3.55;;;19.30;99.90;;;;;;5034307;28;20422;-71
2022/06/12 08:20:56;;;;;;;12.73;3.10;;;19.30;99.90;;;;;;5034840;28;20112;-72
2022/06/12 08:23:33;;;;;;;20.17;3.40;;;19.20;99.90;;;;;;5034047;28;20052;-71
2022/06/12 08:26:16;;;;;;;12.70;3.97;;;19.50;99.90;;;;;;5040772;28;20048;-71
2022/06/12 08:29:10;;;;;;;14.40;2.55;;;19.50;99.90;;;;;;5034426;28;20088;-69
2022/06/12 08:31:39;;;;;;;10.15;2.55;;;19.30;99.90;;;;;;5033933;28;20091;-71
2022/06/12 08:34:10;;;;;;;15.85;4.22;;;19.70;99.90;;;;;;5034169;28;20036;-70
2022/06/12 08:36:36;;;;;;;14.55;2.75;;;19.60;99.90;;;;;;5051480;28;20437;-71
2022/06/12 08:39:04;;;;;;;14.35;2.97;;;19.80;99.90;;;;;;5018173;28;20091;-68
2022/06/12 08:41:41;;;;;;;15.38;2.75;;;19.80;99.90;;;;;;5015456;28;20041;-71
2022/06/12 08:44:16;;;;;;;12.65;3.05;;;19.70;99.90;;;;;;5024561;28;20068;-71
2022/06/12 08:46:53;;;;;;;13.07;4.00;;;19.80;99.90;;;;;;5038519;28;20095;-70
2022/06/12 08:49:25;;;;;;;12.00;2.47;;;20.00;99.90;;;;;;5044149;28;20044;-70
2022/06/12 08:52:25;;;;;;;11.32;2.92;;;20.00;99.90;;;;;;5014219;28;20045;-70
2022/06/12 08:54:59;;;;;;;7.88;1.83;;;19.90;99.90;;;;;;5027303;28;20057;-70
2022/06/12 08:57:33;;;;;;;10.57;2.67;;;20.00;99.90;;;;;;5025308;28;20491;-71
2022/06/12 09:00:05;;;;;;;6.47;2.17;;;20.10;99.90;;;;;;5042358;28;20033;-72
2022/06/12 09:02:34;;;;;;;10.98;2.25;;;20.10;99.90;;;;;;5046341;28;20029;-72
2022/06/12 09:05:03;;;;;;;8.95;1.85;;;20.30;99.90;;;;;;5033356;28;20124;-72
2022/06/12 09:08:13;;;;;;;9.50;2.95;;;20.40;99.90;;;;;;5033492;28;20059;-72
2022/06/12 09:10:50;;;;;;;8.18;2.05;;;20.40;99.90;;;;;;4950359;28;20057;-71
2022/06/12 09:13:36;;;;;;;12.30;2.85;;;20.70;99.90;;;;;;4971643;28;20444;-71
2022/06/12 09:16:16;;;;;;;6.93;2.05;;;20.30;99.90;;;;;;5024297;28;20057;-72
2022/06/12 09:18:56;;;;;;;13.45;2.40;;;20.40;99.90;;;;;;5033284;28;20479;-72
2022/06/12 09:21:41;;;;;;;10.55;2.45;;;20.60;99.90;;;;;;5017193;28;20103;-71
2022/06/12 09:24:36;;;;;;;11.80;2.78;;;20.60;99.90;;;;;;5020034;28;20053;-71
2022/06/12 09:27:25;;;;;;;8.32;1.92;;;20.50;99.90;;;;;;5050866;28;20048;-71
2022/06/12 09:30:08;;;;;;;10.27;2.53;;;20.30;99.90;;;;;;5050743;28;20048;-71
2022/06/12 09:32:54;;;;;;;11.60;2.17;;;20.40;99.90;;;;;;5025946;28;20091;-72
2022/06/12 09:35:31;;;;;;;10.00;2.05;;;20.40;99.90;;;;;;5038684;28;20091;-71
2022/06/12 09:38:38;;;;;;;6.45;1.70;;;20.50;99.90;;;;;;5040379;28;20080;-71
2022/06/12 09:41:17;;;;;;;8.10;2.00;;;20.50;99.90;;;;;;5025917;28;20075;-71
2022/06/12 09:44:07;;;;;;;5.22;1.58;;;20.50;99.90;;;;;;5027487;28;20082;-70
2022/06/12 09:46:59;;;;;;;9.23;1.63;;;20.70;99.90;;;;;;5032735;28;20102;-70
2022/06/12 09:50:01;;;;;;;6.18;1.75;;;20.60;99.90;;;;;;5032992;28;20037;-71
2022/06/12 09:52:40;;;;;;;8.73;2.08;;;20.70;99.90;;;;;;5019878;28;20136;-71
2022/06/12 09:55:19;;;;;;;8.25;1.70;;;20.80;99.90;;;;;;5028699;28;20090;-71
2022/06/12 09:57:51;;;;;;;9.05;1.83;;;20.80;99.90;;;;;;5015220;28;20059;-71
2022/06/12 10:00:31;;;;;;;11.60;2.20;;;20.60;99.90;;;;;;5042099;28;20095;-71
2022/06/12 10:03:11;;;;;;;7.70;1.90;;;21.80;99.90;;;;;;5037120;28;20040;-71
2022/06/12 10:06:02;;;;;;;7.78;2.13;;;20.70;99.90;;;;;;5045205;28;20061;-71
2022/06/12 10:08:31;;;;;;;9.07;2.03;;;20.80;99.90;;;;;;5021068;28;20090;-72
2022/06/12 10:10:59;;;;;;;6.32;1.92;;;20.80;99.90;;;;;;5039504;28;20144;-72
2022/06/12 10:13:34;;;;;;;10.30;2.05;;;21.10;99.90;;;;;;5019536;28;20056;-70
2022/06/12 10:16:02;;;;;;;;;;;20.60;99.90;;;;;;5024567;28;20052;-71
2022/06/12 10:18:43;;;;;;;5.85;1.13;;;20.60;99.90;;;;;;5042192;28;19925;-72
2022/06/12 10:21:12;;;;;;;11.07;2.55;;;22.10;99.90;;;;;;5024766;28;20053;-70
2022/06/12 10:23:37;;;;;;;6.30;2.08;;;20.50;99.90;;;;;;5025009;28;20072;-68
2022/06/12 10:26:21;;;;;;;8.13;1.83;;;20.20;99.90;;;;;;5024069;28;20141;-68
2022/06/12 10:28:59;;;;;;;8.40;1.63;;;20.30;99.90;;;;;;5046177;28;20044;-69
2022/06/12 10:31:25;;;;;;;5.32;1.38;;;20.10;99.90;;;;;;5019280;28;20037;-66
2022/06/12 10:33:56;;;;;;;8.30;2.22;;;20.20;99.90;;;;;;5028636;28;20069;-68
2022/06/12 10:36:28;;;;;;;6.35;1.27;;;20.20;99.90;;;;;;5029790;28;20055;-67
2022/06/12 10:39:15;;;;;;;7.88;1.13;;;22.10;99.90;;;;;;5041818;28;20180;-66
2022/06/12 10:41:51;;;;;;;6.68;1.60;;;20.40;99.90;;;;;;5022681;28;20525;-68
2022/06/12 10:44:37;;;;;;;7.20;1.60;;;20.50;99.90;;;;;;5000418;28;20043;-67
2022/06/12 10:47:24;;;;;;;8.20;1.73;;;20.00;99.90;;;;;;5017146;28;20067;-68
2022/06/12 10:50:14;;;;;;;6.50;1.45;;;20.50;99.90;;;;;;5016224;28;20503;-67
2022/06/12 10:53:04;;;;;;;9.63;1.45;;;21.60;99.90;;;;;;5029225;28;21240;-67
2022/06/12 10:55:40;;;;;;;10.23;2.03;;;20.60;99.90;;;;;;5017895;28;20048;-66
2022/06/12 10:58:41;;;;;;;5.45;1.20;;;21.10;99.90;;;;;;5028244;28;20566;-68
2022/06/12 11:01:34;;;;;;;7.85;1.25;;;21.70;99.90;;;;;;5023920;28;20474;-68
2022/06/12 11:04:13;;;;;;;10.13;2.00;;;20.80;99.90;;;;;;5021777;28;20595;-66
2022/06/12 11:06:58;;;;;;;5.60;0.95;;;21.10;99.90;;;;;;5034267;28;20033;-65
2022/06/12 11:09:44;;;;;;;;;;;21.20;99.90;;;;;;5028123;28;20095;-66
2022/06/12 11:12:33;;;;;;;7.22;1.00;;;21.30;99.90;;;;;;5029974;28;19920;-65
2022/06/12 11:15:21;;;;;;;7.03;1.30;;;21.10;99.90;;;;;;5042636;28;20048;-65
2022/06/12 11:17:54;;;;;;;8.93;1.17;;;21.10;99.90;;;;;;5035620;28;20075;-68
2022/06/12 11:20:45;;;;;;;5.72;1.10;;;21.20;99.90;;;;;;5024724;28;20041;-68
2022/06/12 11:23:45;;;;;;;5.03;1.30;;;22.10;99.90;;;;;;5040353;28;20049;-69
2022/06/12 11:26:47;;;;;;;5.13;1.20;;;21.30;99.90;;;;;;5048171;28;20490;-71
2022/06/12 11:29:42;;;;;;;5.70;1.00;;;21.30;99.90;;;;;;5018531;28;20053;-71
2022/06/12 11:32:26;;;;;;;8.75;1.10;;;21.50;99.90;;;;;;5012722;28;20052;-70
2022/06/12 11:35:09;;;;;;;8.63;1.48;;;21.60;99.90;;;;;;5025450;28;20128;-69
2022/06/12 11:37:53;;;;;;;5.10;1.08;;;21.50;99.90;;;;;;5023280;28;20116;-70
2022/06/12 11:40:41;;;;;;;4.90;1.50;;;21.40;99.90;;;;;;5044469;28;20052;-73
2022/06/12 11:43:29;;;;;;;4.88;1.00;;;21.50;99.90;;;;;;5026149;28;20053;-69
2022/06/12 11:46:28;;;;;;;5.28;1.13;;;21.40;99.90;;;;;;5029268;28;20044;-71
2022/06/12 11:49:38;;;;;;;5.15;1.35;;;21.50;99.90;;;;;;5026090;28;20055;-71
2022/06/12 11:52:28;;;;;;;8.10;1.77;;;21.50;99.90;;;;;;5008291;28;20044;-71
2022/06/12 11:55:19;;;;;;;6.30;1.80;;;21.10;99.90;;;;;;5020772;28;20076;-72
2022/06/12 11:58:07;;;;;;;8.25;1.52;;;21.60;99.90;;;;;;5031445;28;20608;-72
2022/06/12 12:00:45;;;;;;;8.48;1.77;;;21.50;99.90;;;;;;5050213;28;20051;-72
2022/06/12 12:03:41;;;;;;;8.07;1.80;;;21.20;99.90;;;;;;5036763;28;20146;-72
2022/06/12 12:06:15;;;;;;;8.30;1.92;;;21.40;99.90;;;;;;5030679;28;20037;-72
2022/06/12 12:09:19;;;;;;;8.98;1.85;;;21.50;99.90;;;;;;5058798;28;20153;-71
2022/06/12 12:11:53;;;;;;;11.13;2.10;;;21.70;99.90;;;;;;5018861;28;20061;-71
2022/06/12 12:14:30;;;;;;;13.07;1.90;;;21.70;99.90;;;;;;5030642;28;20479;-71
2022/06/12 12:17:03;;;;;;;8.50;1.55;;;21.50;99.90;;;;;;5034463;28;20078;-71
2022/06/12 12:19:52;;;;;;;8.52;1.85;;;21.30;99.90;;;;;;5030589;28;20076;-71
2022/06/12 12:22:40;;;;;;;10.48;2.25;;;21.60;99.90;;;;;;5016490;28;20051;-69
2022/06/12 12:25:30;;;;;;;10.70;1.90;;;21.50;99.90;;;;;;5049987;28;20040;-69
2022/06/12 12:28:01;;;;;;;6.32;1.55;;;21.40;99.90;;;;;;5052419;28;20051;-72
2022/06/12 12:30:33;;;;;;;5.93;1.63;;;21.30;99.90;;;;;;5038499;28;20124;-66
2022/06/12 12:33:02;;;;;;;8.60;1.95;;;21.50;99.90;;;;;;5023995;28;20045;-70
2022/06/12 12:41:13;;;;;;;10.70;1.92;;;21.10;99.90;;;;;;5041587;28;20041;-72
2022/06/12 12:43:52;;;;;;;5.22;1.13;;;20.60;99.90;;;;;;4999100;28;20124;-72
2022/06/12 12:46:19;;;;;;;4.63;1.60;;;20.40;99.90;;;;;;5023246;28;20095;-72
2022/06/12 12:48:48;;;;;;;6.72;1.30;;;21.60;99.90;;;;;;5023641;28;20056;-72
2022/06/12 12:51:24;;;;;;;6.40;1.50;;;20.40;99.90;;;;;;5025117;28;20530;-67
2022/06/12 12:53:52;;;;;;;5.85;2.00;;;20.50;99.90;;;;;;5034489;28;20505;-66
2022/06/12 12:56:29;;;;;;;6.15;1.30;;;21.40;99.90;;;;;;5038988;28;20132;-67
2022/06/12 12:58:58;;;;;;;7.32;0.90;;;20.80;99.90;;;;;;5017302;28;20052;-66
2022/06/12 13:01:34;;;;;;;9.98;1.25;;;20.60;99.90;;;;;;5034186;28;20491;-70
2022/06/12 13:04:15;;;;;;;7.65;1.42;;;21.00;99.90;;;;;;5033893;28;20048;-70
2022/06/12 13:07:11;;;;;;;6.43;1.50;;;21.10;99.90;;;;;;5042530;28;20048;-67
2022/06/12 13:10:21;;;;;;;6.88;1.23;;;21.00;99.90;;;;;;5030895;28;20557;-66
2022/06/12 13:13:02;;;;;;;5.40;1.60;;;21.20;99.90;;;;;;5022623;28;20538;-67
2022/06/12 13:15:35;;;;;;;8.68;1.55;;;21.40;99.90;;;;;;5034639;28;20045;-67
2022/06/12 13:18:17;;;;;;;6.93;1.40;;;21.40;99.90;;;;;;5035407;28;20415;-67
2022/06/12 13:20:52;;;;;;;3.50;1.27;;;21.30;99.90;;;;;;5010264;28;20396;-68
2022/06/12 13:23:43;;;;;;;6.90;1.40;;;21.00;99.90;;;;;;5015617;28;20118;-67
2022/06/12 13:26:13;;;;;;;7.10;1.45;;;21.00;99.90;;;;;;5019285;28;20140;-66
2022/06/12 13:28:40;;;;;;;11.68;1.45;;;21.00;99.90;;;;;;5009046;28;20051;-67
2022/06/12 13:31:18;;;;;;;8.55;2.15;;;21.00;99.90;;;;;;5035945;28;20056;-67
2022/06/12 13:33:59;;;;;;;8.23;1.73;;;21.10;99.90;;;;;;5031092;28;20033;-75
2022/06/12 13:36:36;;;;;;;7.68;1.88;;;22.80;99.90;;;;;;5019439;28;20069;-68
2022/06/12 13:39:29;;;;;;;7.60;2.25;;;21.40;99.90;;;;;;5012722;28;20056;-68
2022/06/12 13:42:03;;;;;;;6.68;2.05;;;20.90;99.90;;;;;;5014489;28;20515;-67
2022/06/12 13:44:40;;;;;;;6.20;1.67;;;21.00;99.90;;;;;;5028955;28;20448;-66
2022/06/12 13:47:18;;;;;;;8.70;1.92;;;21.20;99.90;;;;;;5014387;28;20094;-67